Time;durP1;ratioP1;P1;durP2;ratioP2;P2;SDS_P1;SDS_P2;PMS_P1;PMS_P2;Temp;Humidity;BMP_temperature;BMP_pressure;BME280_temperature;BME280_humidity;BME280_pressure;Samples;Min_cycle;Max_cycle;Signal;HPM_P1;HPM_P2
2021/11/24 00:01:04;;;;;;;59.60;28.45;;;;;;;7.88;66.73;100850.28;5113652;28;20048;-80
2021/11/24 00:03:31;;;;;;;74.38;33.97;;;;;;;7.88;66.59;100850.28;5112875;28;20077;-82
2021/11/24 00:05:59;;;;;;;64.20;30.33;;;;;;;7.85;66.81;100846.03;5124932;28;20511;-83
2021/11/24 00:08:26;;;;;;;60.25;30.80;;;;;;;7.83;66.67;100848.75;5103994;28;20067;-84
2021/11/24 00:10:53;;;;;;;63.08;28.73;;;;;;;7.80;66.70;100843.63;5117649;28;20090;-83
2021/11/24 00:13:24;;;;;;;51.78;26.95;;;;;;;7.93;66.60;100846.47;5120670;28;20462;-81
2021/11/24 00:15:51;;;;;;;53.05;25.88;;;;;;;7.96;66.41;100848.97;5118500;28;20050;-81
2021/11/24 00:18:18;;;;;;;47.05;26.27;;;;;;;8.02;66.36;100847.78;5119392;28;20111;-85
2021/11/24 00:20:46;;;;;;;50.72;23.73;;;;;;;8.03;66.38;100844.19;5042163;28;20041;-78
2021/11/24 00:23:13;;;;;;;54.83;31.33;;;;;;;7.99;66.25;100842.66;5096276;28;20123;-84
2021/11/24 00:25:41;;;;;;;58.80;32.20;;;;;;;7.91;65.96;100834.34;5093089;28;20052;-84
2021/11/24 00:28:10;;;;;;;43.22;21.75;;;;;;;7.95;66.11;100841.97;5096685;28;20050;-80
2021/11/24 00:30:39;;;;;;;50.55;25.65;;;;;;;7.96;66.14;100848.97;5094743;28;20071;-85
2021/11/24 00:33:07;;;;;;;52.47;27.58;;;;;;;7.95;65.85;100847.25;5093164;28;20074;-86
2021/11/24 00:35:34;;;;;;;40.53;18.60;;;;;;;7.97;65.79;100853.28;5094736;28;20623;-77
2021/11/24 00:38:03;;;;;;;43.00;21.70;;;;;;;8.00;65.88;100858.38;5098427;28;20043;-85
2021/11/24 00:40:31;;;;;;;39.97;20.52;;;;;;;7.94;65.85;100856.09;5087841;28;20076;-84
2021/11/24 00:42:58;;;;;;;44.20;19.63;;;;;;;7.94;65.84;100844.69;5091732;28;20127;-88
2021/11/24 00:45:26;;;;;;;44.10;22.20;;;;;;;7.95;65.56;100846.41;5092934;28;20048;-83
2021/11/24 00:47:56;;;;;;;48.33;24.60;;;;;;;8.00;65.77;100844.38;5094217;28;20059;-84
2021/11/24 00:50:24;;;;;;;44.25;23.67;;;;;;;7.98;65.67;100843.63;5093507;28;20119;-81
2021/11/24 00:52:55;;;;;;;50.10;23.35;;;;;;;8.00;65.71;100842.59;5091135;28;20459;-78
2021/11/24 00:55:22;;;;;;;47.67;22.63;;;;;;;8.03;65.68;100845.06;5091917;28;20059;-80
2021/11/24 00:57:50;;;;;;;46.42;24.27;;;;;;;8.07;65.40;100848.41;5074621;28;20058;-80
2021/11/24 01:00:18;;;;;;;49.95;25.50;;;;;;;8.07;65.45;100848.41;5073899;28;20106;-80
2021/11/24 01:02:47;;;;;;;42.72;22.45;;;;;;;8.05;65.59;100842.38;5090918;28;20507;-82
2021/11/24 01:05:46;;;;;;;55.28;27.92;;;;;;;8.03;65.63;100850.34;5092977;28;20136;-82
2021/11/24 01:08:13;;;;;;;49.80;27.95;;;;;;;7.96;65.58;100845.44;5092219;28;20059;-79
2021/11/24 01:14:02;;;;;;;58.75;25.00;;;;;;;7.95;65.55;100843.78;5089645;28;20668;-75
2021/11/24 01:16:30;;;;;;;68.65;29.50;;;;;;;7.91;65.69;100834.34;5088588;28;20055;-76
2021/11/24 01:18:57;;;;;;;53.60;28.05;;;;;;;7.96;65.60;100837.56;5088800;28;20088;-76
2021/11/24 01:21:26;;;;;;;53.25;27.65;;;;;;;7.96;65.59;100827.91;5087668;28;20046;-77
2021/11/24 01:23:53;;;;;;;57.00;30.67;;;;;;;7.97;65.74;100826.97;5089482;28;20158;-75
2021/11/24 01:26:21;;;;;;;53.95;26.90;;;;;;;8.00;65.71;100815.44;5088988;28;20052;-80
2021/11/24 01:28:49;;;;;;;68.32;32.30;;;;;;;7.99;65.59;100811.09;5087679;28;20059;-78
2021/11/24 01:31:16;;;;;;;55.00;26.35;;;;;;;8.02;65.52;100814.41;5088967;28;20090;-78
2021/11/24 01:33:43;;;;;;;73.13;32.63;;;;;;;8.00;65.54;100816.28;5088665;28;20588;-78
2021/11/24 01:36:35;;;;;;;56.35;26.23;;;;;;;8.01;65.45;100814.50;5088409;28;20135;-78
2021/11/24 01:39:04;;;;;;;62.25;29.70;;;;;;;8.03;65.58;100808.25;5089838;28;20512;-78
2021/11/24 01:41:31;;;;;;;63.67;29.23;;;;;;;8.04;65.61;100809.09;5087118;28;20104;-78
2021/11/24 01:44:01;;;;;;;62.97;29.95;;;;;;;8.04;65.62;100809.09;5088685;28;20048;-78
2021/11/24 01:46:30;;;;;;;62.22;27.88;;;;;;;8.05;65.38;100800.28;5088739;28;20083;-77
2021/11/24 01:52:18;;;;;;;60.25;29.08;;;;;;;8.10;65.10;100803.47;5634758;22;20049;-77
2021/11/24 01:54:48;;;;;;;57.15;27.08;;;;;;;8.04;65.46;100803.81;5068606;28;20137;-76
2021/11/24 01:57:36;;;;;;;60.90;27.67;;;;;;;8.08;65.73;100809.78;5066346;28;20051;-77
2021/11/24 02:00:06;;;;;;;56.53;27.50;;;;;;;8.07;65.37;100795.78;5067043;28;20058;-77
2021/11/24 02:02:34;;;;;;;57.97;24.67;;;;;;;8.07;65.26;100802.81;5064610;28;20060;-78
2021/11/24 02:05:01;;;;;;;45.70;23.10;;;;;;;8.03;65.53;100796.84;5066838;28;20048;-77
2021/11/24 02:07:28;;;;;;;51.90;26.10;;;;;;;8.02;65.61;100790.75;5066937;28;20047;-78
2021/11/24 02:09:56;;;;;;;56.85;26.65;;;;;;;8.01;65.59;100793.44;5066807;28;20045;-77
2021/11/24 02:12:23;;;;;;;53.45;24.70;;;;;;;8.03;65.51;100799.47;5048723;28;20056;-77
2021/11/24 02:14:50;;;;;;;72.72;30.20;;;;;;;8.00;65.46;100792.63;5068040;28;20075;-77
2021/11/24 02:17:18;;;;;;;59.13;28.65;;;;;;;8.01;65.68;100793.44;5065996;28;20540;-77
2021/11/24 02:20:18;;;;;;;62.13;27.60;;;;;;;8.03;65.93;100788.97;5069468;28;20048;-79
2021/11/24 02:22:46;;;;;;;61.47;27.95;;;;;;;8.00;65.66;100792.63;5078623;28;20127;-81
2021/11/24 02:25:13;;;;;;;58.03;26.83;;;;;;;7.97;65.75;100782.25;5070237;28;20056;-79
2021/11/24 02:27:41;;;;;;;49.83;23.85;;;;;;;7.98;65.91;100785.75;5070774;28;20563;-80
2021/11/24 02:30:09;;;;;;;56.22;24.35;;;;;;;7.98;65.96;100789.22;5069326;28;20044;-78
2021/11/24 02:32:37;;;;;;;54.40;25.55;;;;;;;8.01;65.95;100788.19;5068533;28;20142;-78
2021/11/24 02:35:05;;;;;;;62.00;29.60;;;;;;;8.00;65.80;100781.25;5068740;28;20044;-79
2021/11/24 02:37:34;;;;;;;60.08;28.35;;;;;;;7.99;65.87;100784.81;5069687;28;20115;-78
2021/11/24 02:40:02;;;;;;;65.72;30.45;;;;;;;8.00;65.98;100786.50;5069889;28;20051;-78
2021/11/24 02:42:30;;;;;;;58.13;24.60;;;;;;;8.03;65.90;100781.06;5069624;28;20127;-78
2021/11/24 02:44:57;;;;;;;57.75;25.08;;;;;;;8.05;65.77;100768.72;5071383;28;20476;-78
2021/11/24 02:47:25;;;;;;;50.42;23.27;;;;;;;8.03;65.83;100773.19;5058312;28;20072;-78
2021/11/24 02:49:55;;;;;;;56.05;23.75;;;;;;;8.01;65.98;100772.41;5073153;28;20063;-80
2021/11/24 02:52:24;;;;;;;64.22;30.77;;;;;;;8.02;65.97;100764.44;5075354;28;20053;-80
2021/11/24 02:54:59;;;;;;;53.13;23.50;;;;;;;7.98;66.06;100751.56;5067807;28;20083;-79
2021/11/24 02:57:32;;;;;;;53.17;24.90;;;;;;;8.03;66.02;100760.03;5065010;28;20104;-81
2021/11/24 02:59:59;;;;;;;55.95;25.83;;;;;;;8.01;66.06;100752.25;5065922;28;20045;-80
2021/11/24 03:02:27;;;;;;;57.20;25.67;;;;;;;8.01;66.03;100761.88;5064027;28;20052;-78
2021/11/24 03:04:56;;;;;;;50.75;23.05;;;;;;;8.02;65.94;100746.03;5066193;28;20069;-78
2021/11/24 03:07:24;;;;;;;55.05;24.70;;;;;;;8.05;65.93;100760.81;5048843;28;20132;-78
2021/11/24 03:09:52;;;;;;;51.70;25.70;;;;;;;8.02;66.12;100747.81;5069253;28;20117;-81
2021/11/24 03:12:21;;;;;;;54.38;25.02;;;;;;;8.01;66.11;100751.38;5047711;28;20041;-77
2021/11/24 03:14:49;;;;;;;48.45;23.20;;;;;;;8.00;66.07;100749.69;5061832;28;20049;-82
2021/11/24 03:17:16;;;;;;;48.55;26.13;;;;;;;7.98;66.19;100752.41;5056703;28;20052;-79
2021/11/24 03:19:46;;;;;;;37.92;18.75;;;;;;;7.96;66.15;100743.75;5054510;28;20485;-79
2021/11/24 03:22:13;;;;;;;52.50;24.15;;;;;;;7.95;66.05;100741.19;5052693;28;20139;-78
2021/11/24 03:24:41;;;;;;;45.50;20.77;;;;;;;7.94;66.17;100739.47;5030815;28;20060;-78
2021/11/24 03:27:08;;;;;;;51.47;25.63;;;;;;;7.91;66.18;100744.91;5050668;28;20052;-79
2021/11/24 03:29:37;;;;;;;37.53;16.08;;;;;;;7.90;66.46;100740.59;5050304;28;20558;-81
2021/11/24 03:32:06;;;;;;;38.55;17.48;;;;;;;7.87;66.36;100738.97;5032635;28;20132;-77
2021/11/24 03:34:33;;;;;;;40.97;18.48;;;;;;;7.87;66.37;100738.09;5050179;28;20135;-79
2021/11/24 03:37:00;;;;;;;38.58;18.92;;;;;;;7.88;66.41;100737.19;5049579;28;20111;-76
2021/11/24 03:39:28;;;;;;;33.28;16.88;;;;;;;7.88;66.40;100737.19;5029880;28;20126;-81
2021/11/24 03:41:56;;;;;;;34.55;18.60;;;;;;;7.88;66.48;100738.03;5045909;28;20055;-80
2021/11/24 03:44:23;;;;;;;36.05;18.13;;;;;;;7.90;66.31;100727.44;5049213;28;20051;-85
2021/11/24 03:46:52;;;;;;;33.40;15.65;;;;;;;7.96;66.12;100727.09;5048819;28;20059;-77
2021/11/24 03:49:21;;;;;;;30.10;18.42;;;;;;;7.97;66.29;100724.38;5052295;28;20129;-86
2021/11/24 03:51:51;;;;;;;30.00;15.73;;;;;;;8.02;66.08;100726.78;5052224;28;20136;-78
2021/11/24 03:54:18;;;;;;;35.97;15.77;;;;;;;8.03;66.22;100726.69;5048332;28;20374;-85
2021/11/24 03:56:46;;;;;;;34.80;15.77;;;;;;;8.07;66.27;100737.03;5047114;28;20079;-74
2021/11/24 03:59:13;;;;;;;31.30;15.57;;;;;;;8.09;66.14;100738.66;5048133;28;20136;-75
2021/11/24 04:01:40;;;;;;;29.52;17.35;;;;;;;8.09;65.93;100737.81;5048361;28;20055;-91
2021/11/24 04:04:09;;;;;;;35.60;17.08;;;;;;;8.08;66.06;100744.00;5047211;28;20135;-75
2021/11/24 04:06:36;;;;;;;31.80;15.23;;;;;;;8.08;66.16;100739.59;5026741;28;20504;-77
2021/11/24 04:09:04;;;;;;;28.08;16.92;;;;;;;8.11;66.01;100746.47;5047992;28;20128;-76
2021/11/24 04:11:31;;;;;;;37.35;16.67;;;;;;;8.12;66.00;100737.63;5046150;28;20048;-74
2021/11/24 04:13:58;;;;;;;29.38;16.17;;;;;;;8.10;65.89;100732.44;5048765;28;20128;-80
2021/11/24 04:16:25;;;;;;;33.88;17.00;;;;;;;8.11;66.03;100731.53;5048452;28;20106;-80
2021/11/24 04:18:54;;;;;;;32.35;16.08;;;;;;;8.12;65.94;100735.00;5049166;28;20049;-81
2021/11/24 04:21:22;;;;;;;27.52;16.33;;;;;;;8.13;65.91;100736.72;5051943;28;20558;-84
2021/11/24 04:23:50;;;;;;;30.83;16.90;;;;;;;8.10;65.79;100737.72;5055957;28;20069;-79
2021/11/24 04:26:18;;;;;;;33.17;17.33;;;;;;;8.08;65.69;100733.47;5055105;28;20456;-84
2021/11/24 04:28:45;;;;;;;35.72;19.17;;;;;;;8.04;66.00;100732.78;5054928;28;20053;-81
2021/11/24 04:31:13;;;;;;;30.27;16.45;;;;;;;8.06;66.02;100741.44;5053065;28;20114;-79
2021/11/24 04:33:40;;;;;;;27.73;15.63;;;;;;;8.10;65.84;100734.25;5050708;28;20429;-79
2021/11/24 04:36:08;;;;;;;31.45;16.98;;;;;;;8.13;65.78;100727.03;5053365;28;20136;-80
2021/11/24 04:38:37;;;;;;;29.95;16.40;;;;;;;8.14;65.66;100731.38;5055833;28;20044;-79
2021/11/24 04:41:05;;;;;;;30.67;16.33;;;;;;;8.13;65.56;100727.03;5033925;28;20080;-82
2021/11/24 04:43:35;;;;;;;35.60;19.45;;;;;;;8.15;65.60;100735.69;5056450;28;20630;-76
2021/11/24 04:46:02;;;;;;;31.60;17.42;;;;;;;8.17;65.71;100727.72;5055864;28;20061;-76
2021/11/24 04:48:30;;;;;;;32.92;19.73;;;;;;;8.18;65.59;100732.91;5058483;28;20049;-80
2021/11/24 04:50:57;;;;;;;34.30;17.33;;;;;;;8.14;65.46;100723.47;5056114;28;20045;-74
2021/11/24 04:53:24;;;;;;;33.25;17.05;;;;;;;8.18;65.59;100730.25;5059216;28;20061;-74
2021/11/24 04:55:53;;;;;;;35.38;16.65;;;;;;;8.20;65.58;100731.03;5058943;28;20136;-75
2021/11/24 04:58:20;;;;;;;31.80;17.05;;;;;;;8.22;65.49;100723.03;5059732;28;20101;-77
2021/11/24 05:00:47;;;;;;;31.42;17.65;;;;;;;8.23;65.45;100725.59;5059649;28;20053;-76
2021/11/24 05:03:14;;;;;;;28.10;15.82;;;;;;;8.26;65.35;100726.34;5060747;28;20874;-80
2021/11/24 05:05:41;;;;;;;34.58;16.63;;;;;;;8.21;65.26;100716.94;5055501;28;20084;-76
2021/11/24 05:08:08;;;;;;;35.90;19.20;;;;;;;8.22;65.30;100721.25;5058833;28;20048;-89
2021/11/24 05:10:35;;;;;;;31.92;16.88;;;;;;;8.22;65.53;100723.88;5056544;28;20682;-78
2021/11/24 05:13:05;;;;;;;37.28;19.95;;;;;;;8.21;65.23;100732.72;5056311;28;20132;-79
2021/11/24 05:15:35;;;;;;;34.53;18.42;;;;;;;8.18;65.45;100732.06;5054147;28;20132;-79
2021/11/24 05:18:07;;;;;;;30.73;17.67;;;;;;;8.14;65.49;100730.50;5054584;28;20056;-76
2021/11/24 05:20:35;;;;;;;33.63;17.88;;;;;;;8.11;65.53;100721.00;5050984;28;20060;-78
2021/11/24 05:23:05;;;;;;;30.77;17.85;;;;;;;8.10;65.59;100711.41;5055745;28;20044;-83
2021/11/24 05:25:34;;;;;;;38.78;18.45;;;;;;;8.10;65.59;100714.03;5054208;28;20082;-79
2021/11/24 05:28:04;;;;;;;30.35;16.95;;;;;;;8.08;65.53;100715.91;5054828;28;20045;-83
2021/11/24 05:30:32;;;;;;;32.03;17.33;;;;;;;8.05;65.58;100716.09;5050428;28;20052;-83
2021/11/24 05:32:59;;;;;;;31.85;18.50;;;;;;;8.02;65.80;100717.09;5050715;28;20108;-77
2021/11/24 05:35:28;;;;;;;34.63;19.42;;;;;;;8.02;65.73;100714.47;5051092;28;20081;-84
2021/11/24 05:37:56;;;;;;;37.05;18.08;;;;;;;8.02;65.77;100711.00;5049635;28;20049;-74
2021/11/24 05:40:23;;;;;;;46.05;23.70;;;;;;;7.95;65.79;100715.72;5052610;28;20120;-76
2021/11/24 05:42:50;;;;;;;42.25;22.75;;;;;;;7.95;65.91;100715.72;5045685;28;20049;-75
2021/11/24 05:45:27;;;;;;;53.63;26.38;;;;;;;7.98;65.95;100712.09;5047717;28;20120;-73
2021/11/24 05:47:57;;;;;;;45.72;22.92;;;;;;;7.99;65.88;100719.03;5048197;28;20090;-77
2021/11/24 05:50:26;;;;;;;45.40;23.58;;;;;;;7.95;65.82;100715.72;5047311;28;20087;-74
2021/11/24 05:52:54;;;;;;;42.50;24.10;;;;;;;7.95;65.89;100720.16;5048169;28;20581;-70
2021/11/24 05:55:22;;;;;;;36.28;20.20;;;;;;;7.93;65.84;100727.28;5048098;28;20136;-78
2021/11/24 05:57:49;;;;;;;40.45;19.45;;;;;;;7.96;65.87;100721.81;5048015;28;20049;-75
2021/11/24 06:00:19;;;;;;;42.47;20.70;;;;;;;7.94;65.88;100721.06;5053666;28;20679;-81
2021/11/24 06:02:46;;;;;;;53.35;27.70;;;;;;;7.96;65.94;100712.19;5051809;28;20128;-83
2021/11/24 06:05:15;;;;;;;52.22;26.35;;;;;;;7.98;65.90;100720.00;5047898;28;20128;-81
2021/11/24 06:07:45;;;;;;;47.30;19.40;;;;;;;8.01;65.75;100720.66;5051336;28;20080;-75
2021/11/24 06:10:12;;;;;;;45.88;23.42;;;;;;;7.99;65.66;100716.41;5054751;28;20084;-74
2021/11/24 06:12:40;;;;;;;40.70;20.55;;;;;;;8.00;66.00;100723.38;5049608;28;20049;-75
2021/11/24 06:15:08;;;;;;;40.40;20.25;;;;;;;8.00;65.89;100718.97;5053550;28;20072;-81
2021/11/24 06:17:37;;;;;;;38.63;19.50;;;;;;;8.00;65.83;100720.75;5051046;28;20120;-82
2021/11/24 06:20:06;;;;;;;36.60;18.25;;;;;;;8.00;65.78;100726.84;5051698;28;20076;-77
2021/11/24 06:22:33;;;;;;;34.10;18.48;;;;;;;8.00;65.70;100720.75;5050170;28;20095;-78
2021/11/24 06:25:00;;;;;;;39.15;19.08;;;;;;;8.03;65.79;100729.31;5034178;28;20541;-81
2021/11/24 06:27:27;;;;;;;31.30;17.67;;;;;;;8.06;65.76;100730.09;5053788;28;20143;-79
2021/11/24 06:29:55;;;;;;;33.42;18.92;;;;;;;8.07;65.76;100735.28;5052618;28;20492;-77
2021/11/24 06:32:23;;;;;;;28.23;15.02;;;;;;;8.09;65.71;100729.94;5051653;28;20136;-81
2021/11/24 06:34:51;;;;;;;32.83;20.25;;;;;;;8.14;65.56;100733.13;5052605;28;20136;-87
2021/11/24 06:37:20;;;;;;;29.40;17.27;;;;;;;8.14;65.55;100736.63;5053554;28;20556;-83
2021/11/24 06:39:47;;;;;;;31.92;18.13;;;;;;;8.17;65.35;100736.44;5057395;28;20104;-85
2021/11/24 06:42:14;;;;;;;33.90;17.73;;;;;;;8.21;65.30;100738.00;5053785;28;20081;-81
2021/11/24 06:44:41;;;;;;;35.08;17.50;;;;;;;8.22;65.26;100737.03;5054899;28;20504;-81
2021/11/24 06:47:09;;;;;;;38.65;18.17;;;;;;;8.22;65.45;100737.03;5053684;28;20102;-82
2021/11/24 06:49:40;;;;;;;39.22;20.35;;;;;;;8.26;65.17;100739.50;5052427;28;20135;-83
2021/11/24 06:52:09;;;;;;;34.50;17.83;;;;;;;8.30;65.15;100735.78;5055023;28;20061;-81
2021/11/24 06:54:36;;;;;;;34.13;19.40;;;;;;;8.33;64.97;100735.63;5058472;28;20049;-84
2021/11/24 06:57:04;;;;;;;30.80;17.25;;;;;;;8.31;64.93;100735.69;5064699;28;20043;-74
2021/11/24 06:59:31;;;;;;;32.90;16.55;;;;;;;8.33;64.66;100740.88;5057380;28;20072;-78
2021/11/24 07:01:58;;;;;;;31.48;19.13;;;;;;;8.33;64.72;100740.88;5059181;28;20076;-79
2021/11/24 07:04:25;;;;;;;37.00;19.40;;;;;;;8.37;64.80;100747.66;5056564;28;20133;-80
2021/11/24 07:06:53;;;;;;;34.45;17.25;;;;;;;8.39;64.86;100756.31;5014218;28;20045;-78
2021/11/24 07:09:24;;;;;;;35.58;17.85;;;;;;;8.37;64.93;100763.44;5029824;28;20085;-79
2021/11/24 07:11:52;;;;;;;28.73;15.35;;;;;;;8.31;64.88;100759.38;5028834;28;20049;-75
2021/11/24 07:14:24;;;;;;;33.03;16.38;;;;;;;8.38;64.86;100767.78;5051009;28;20072;-79
2021/11/24 07:16:51;;;;;;;31.73;17.30;;;;;;;8.42;64.82;100756.19;5055879;28;20064;-79
2021/11/24 07:19:22;;;;;;;31.75;16.92;;;;;;;8.47;64.84;100758.56;5052003;28;20091;-80
2021/11/24 07:21:50;;;;;;;35.72;20.23;;;;;;;8.47;64.60;100758.56;5048776;28;20067;-78
2021/11/24 07:24:19;;;;;;;34.22;20.00;;;;;;;8.52;64.58;100756.53;5050433;28;20257;-81
2021/11/24 07:26:49;;;;;;;25.20;15.07;;;;;;;8.58;64.45;100753.56;5048759;28;20067;-81
2021/11/24 07:29:16;;;;;;;33.42;19.70;;;;;;;8.58;64.45;100749.13;5049080;28;20059;-79
2021/11/24 07:31:43;;;;;;;31.10;17.45;;;;;;;8.59;64.26;100753.47;5045347;28;20084;-78
2021/11/24 07:34:12;;;;;;;28.08;16.88;;;;;;;8.61;64.04;100746.34;5024968;28;20128;-79
2021/11/24 07:36:40;;;;;;;29.15;16.38;;;;;;;8.66;64.08;100750.47;5043912;28;20067;-81
2021/11/24 07:39:08;;;;;;;27.35;17.35;;;;;;;8.61;64.12;100743.69;5051682;28;20057;-86
2021/11/24 07:41:35;;;;;;;31.27;16.13;;;;;;;8.68;64.02;100740.72;5031678;28;20582;-77
2021/11/24 07:44:06;;;;;;;26.17;13.65;;;;;;;8.77;63.96;100741.06;5046687;28;20072;-79
2021/11/24 07:46:33;;;;;;;29.38;15.73;;;;;;;8.83;63.87;100745.13;5023248;28;20045;-79
2021/11/24 07:49:02;;;;;;;22.05;13.80;;;;;;;8.83;63.78;100747.75;5025941;28;20064;-83
2021/11/24 07:51:31;;;;;;;25.88;15.13;;;;;;;8.84;63.59;100746.81;5043494;28;20124;-77
2021/11/24 07:54:00;;;;;;;27.58;15.88;;;;;;;8.79;63.25;100743.59;5043952;28;20548;-79
2021/11/24 07:56:27;;;;;;;28.40;14.70;;;;;;;8.83;63.34;100742.47;5052520;28;20049;-78
2021/11/24 07:58:56;;;;;;;24.48;14.75;;;;;;;8.85;63.10;100751.13;5047198;28;20139;-80
2021/11/24 08:01:25;;;;;;;26.05;14.48;;;;;;;8.87;63.10;100746.63;5044874;28;20059;-77
2021/11/24 08:03:52;;;;;;;22.38;13.98;;;;;;;8.89;63.08;100749.19;5044363;28;20725;-75
2021/11/24 08:06:20;;;;;;;28.13;16.10;;;;;;;8.87;63.14;100740.50;5042960;28;20063;-77
2021/11/24 08:08:47;;;;;;;31.42;17.52;;;;;;;8.82;62.73;100738.13;5023528;28;20449;-77
2021/11/24 08:11:16;;;;;;;28.73;17.27;;;;;;;8.91;62.82;100748.16;5045773;28;20075;-83
2021/11/24 08:13:45;;;;;;;26.80;14.35;;;;;;;8.96;62.62;100743.47;5030065;28;20510;-81
2021/11/24 08:16:13;;;;;;;24.95;15.32;;;;;;;9.05;62.64;100742.06;5048645;28;20120;-78
2021/11/24 08:18:42;;;;;;;33.30;17.42;;;;;;;9.15;62.48;100742.41;5048660;28;20485;-78
2021/11/24 08:21:09;;;;;;;24.60;14.63;;;;;;;9.14;62.36;100743.34;5047586;28;20049;-80
2021/11/24 08:23:37;;;;;;;29.30;16.90;;;;;;;9.09;62.23;100745.38;5051257;28;20218;-78
2021/11/24 08:26:05;;;;;;;30.45;15.38;;;;;;;9.09;62.44;100750.66;5054013;28;20048;-75
2021/11/24 08:28:32;;;;;;;30.80;15.63;;;;;;;9.19;62.22;100739.47;5046574;28;20049;-76
2021/11/24 08:30:59;;;;;;;26.27;15.55;;;;;;;9.26;62.06;100737.34;5045262;28;20854;-77
2021/11/24 08:33:27;;;;;;;29.02;15.98;;;;;;;9.22;61.69;100742.88;5045173;28;20500;-74
2021/11/24 08:35:55;;;;;;;25.77;16.27;;;;;;;9.14;61.98;100743.34;5043770;28;20048;-76
2021/11/24 08:38:22;;;;;;;22.85;15.57;;;;;;;9.18;62.02;100745.72;5044610;28;20079;-77
2021/11/24 08:40:50;;;;;;;27.83;15.90;;;;;;;9.29;61.90;100752.13;5045742;28;20056;-75
2021/11/24 08:43:17;;;;;;;26.10;16.55;;;;;;;9.38;61.71;100741.00;5044259;28;20096;-73
2021/11/24 08:45:44;;;;;;;27.40;15.98;;;;;;;9.46;61.52;100740.59;5044065;28;20052;-74
2021/11/24 08:48:11;;;;;;;31.88;17.40;;;;;;;9.49;61.48;100746.53;5034765;28;20128;-76
2021/11/24 08:50:38;;;;;;;31.63;17.10;;;;;;;9.50;61.40;100742.94;5048248;28;20132;-80
2021/11/24 08:53:07;;;;;;;25.67;15.85;;;;;;;9.56;61.48;100741.69;5048905;28;20110;-78
2021/11/24 08:55:34;;;;;;;30.50;18.27;;;;;;;9.57;61.54;100746.03;5046362;28;20103;-78
2021/11/24 08:58:01;;;;;;;25.38;15.70;;;;;;;9.53;61.31;100734.84;5045265;28;20049;-82
2021/11/24 09:00:28;;;;;;;29.42;16.58;;;;;;;9.53;61.38;100737.47;5048219;28;20045;-78
2021/11/24 09:02:55;;;;;;;30.88;16.95;;;;;;;9.55;61.21;100742.66;5045988;28;20097;-76
2021/11/24 09:05:23;;;;;;;29.30;16.38;;;;;;;9.52;61.34;100737.56;5045164;28;20596;-78
2021/11/24 09:07:55;;;;;;;28.83;17.23;;;;;;;9.48;61.31;100743.97;5046889;28;20093;-72
2021/11/24 09:10:26;;;;;;;27.27;17.85;;;;;;;9.35;61.21;100743.84;5043253;28;20045;-75
2021/11/24 09:12:53;;;;;;;35.65;21.15;;;;;;;9.27;60.87;100749.56;5042266;28;20629;-74
2021/11/24 09:15:22;;;;;;;25.70;15.95;;;;;;;9.32;61.14;100739.59;5044269;28;20049;-75
2021/11/24 09:17:49;;;;;;;27.45;15.40;;;;;;;9.43;60.96;100743.41;5044457;28;20132;-78
2021/11/24 09:20:17;;;;;;;27.42;17.48;;;;;;;9.41;61.05;100758.47;5044979;28;20081;-73
2021/11/24 09:22:46;;;;;;;24.30;14.50;;;;;;;9.33;60.99;100753.66;5046555;28;20648;-74
2021/11/24 09:25:16;;;;;;;27.23;18.58;;;;;;;9.30;61.09;100743.28;5036156;28;20049;-77
2021/11/24 09:27:48;;;;;;;23.77;12.63;;;;;;;9.29;61.22;100752.13;5043360;28;20051;-77
2021/11/24 09:30:18;;;;;;;26.60;14.02;;;;;;;9.29;61.34;100749.47;5044932;28;20044;-75
2021/11/24 09:32:45;;;;;;;23.08;14.85;;;;;;;9.25;61.16;100738.25;5044762;28;20131;-75
2021/11/24 09:35:13;;;;;;;27.65;16.08;;;;;;;9.26;61.23;100728.59;5055641;28;20436;-73
2021/11/24 09:37:40;;;;;;;26.67;14.80;;;;;;;9.27;61.26;100738.19;5056202;28;20064;-79
2021/11/24 09:40:10;;;;;;;25.17;14.73;;;;;;;9.25;61.36;100725.09;5058409;28;20524;-79
2021/11/24 09:42:40;;;;;;;23.98;13.65;;;;;;;9.26;61.41;100728.59;5056679;28;20079;-75
2021/11/24 09:45:10;;;;;;;28.58;15.52;;;;;;;9.23;61.32;100732.25;5061961;28;20489;-75
2021/11/24 09:47:38;;;;;;;26.80;16.65;;;;;;;9.23;61.46;100723.50;5055440;28;20049;-76
2021/11/24 09:50:07;;;;;;;23.77;14.88;;;;;;;9.25;61.14;100719.81;5050922;28;20109;-78
2021/11/24 09:52:38;;;;;;;21.92;11.98;;;;;;;9.27;61.46;100720.56;5050618;28;20044;-81
2021/11/24 09:55:08;;;;;;;23.38;14.82;;;;;;;9.27;61.47;100725.00;5048408;28;20151;-75
2021/11/24 09:57:38;;;;;;;26.63;17.55;;;;;;;9.32;61.34;100715.03;5031376;28;20129;-76
2021/11/24 10:00:07;;;;;;;27.60;15.50;;;;;;;9.29;61.19;100720.47;5046484;28;20053;-74
2021/11/24 10:02:42;;;;;;;27.58;15.60;;;;;;;9.30;61.36;100716.91;5045544;28;20055;-76
2021/11/24 10:05:10;;;;;;;27.15;16.58;;;;;;;9.31;61.31;100719.47;5046214;28;20068;-78
2021/11/24 10:07:39;;;;;;;25.77;15.80;;;;;;;9.36;61.39;100712.13;5045215;28;20080;-73
2021/11/24 10:10:07;;;;;;;26.77;14.77;;;;;;;9.44;61.15;100722.22;5041716;28;20044;-77
2021/11/24 10:12:34;;;;;;;23.73;14.10;;;;;;;9.50;61.23;100707.81;5019373;28;20047;-75
2021/11/24 10:15:02;;;;;;;33.63;19.30;;;;;;;9.60;61.12;100708.94;5019128;28;20060;-76
2021/11/24 10:17:30;;;;;;;24.80;14.55;;;;;;;9.68;60.85;100698.75;5039770;28;20727;-76
2021/11/24 10:20:06;;;;;;;26.35;14.18;;;;;;;9.65;60.93;100701.59;5041935;28;20117;-73
2021/11/24 10:22:35;;;;;;;31.63;16.75;;;;;;;9.56;61.14;100696.88;5042751;28;20071;-82
2021/11/24 10:25:06;;;;;;;24.75;14.80;;;;;;;9.53;61.59;100694.44;5048978;28;20049;-79
2021/11/24 10:27:37;;;;;;;23.85;14.80;;;;;;;9.45;61.72;100689.63;5052155;28;20043;-78
2021/11/24 10:30:06;;;;;;;27.65;15.38;;;;;;;9.49;61.67;100690.28;5047477;28;20072;-77
2021/11/24 10:32:33;;;;;;;22.58;13.60;;;;;;;9.63;61.41;100682.38;5036810;28;20614;-74
2021/11/24 10:35:00;;;;;;;25.00;14.68;;;;;;;9.76;61.25;100685.13;5021685;28;20049;-76
2021/11/24 10:37:29;;;;;;;28.00;15.80;;;;;;;9.86;61.22;100682.75;5041808;28;20072;-77
2021/11/24 10:39:59;;;;;;;25.75;13.10;;;;;;;9.93;61.08;100686.69;5042987;28;20991;-74
2021/11/24 10:42:30;;;;;;;22.35;14.13;;;;;;;10.00;60.98;100679.25;5039335;28;20048;-77
2021/11/24 10:45:00;;;;;;;25.25;13.73;;;;;;;10.03;60.86;100679.91;5015946;28;20131;-77
2021/11/24 10:47:28;;;;;;;26.23;17.50;;;;;;;10.07;60.88;100670.00;5040499;28;20079;-77
2021/11/24 10:49:57;;;;;;;29.73;17.08;;;;;;;10.12;60.87;100683.75;5040130;28;20513;-74
2021/11/24 10:52:26;;;;;;;28.65;15.50;;;;;;;10.20;60.55;100678.81;4988839;28;1283556;-76
2021/11/24 10:55:06;;;;;;;28.58;15.80;;;;;;;10.12;60.84;100676.66;5040411;28;20125;-76
2021/11/24 10:57:35;;;;;;;25.63;15.18;;;;;;;10.10;60.59;100675.94;5043150;28;20141;-73
2021/11/24 11:00:09;;;;;;;24.23;15.02;;;;;;;10.14;60.64;100671.28;5039091;28;20055;-73
2021/11/24 11:02:37;;;;;;;26.58;18.02;;;;;;;10.27;60.17;100671.34;5038466;28;20129;-76
2021/11/24 11:05:25;;;;;;;29.75;16.05;;;;;;;10.36;60.09;100668.16;5041271;28;20126;-76
2021/11/24 11:08:02;;;;;;;22.08;15.02;;;;;;;10.44;59.73;100660.59;4958841;28;20153;-76
2021/11/24 11:10:33;;;;;;;27.77;16.83;;;;;;;10.52;59.48;100660.06;4957791;28;20137;-78
2021/11/24 11:13:05;;;;;;;23.27;14.60;;;;;;;10.53;59.46;100661.75;4957685;28;20042;-76
2021/11/24 11:15:38;;;;;;;24.23;14.98;;;;;;;10.50;59.39;100659.31;4955472;28;20047;-76
2021/11/24 11:18:20;;;;;;;22.25;15.55;;;;;;;10.57;59.20;100654.47;4944177;28;20043;-79
2021/11/24 11:20:52;;;;;;;21.38;13.48;;;;;;;10.55;59.07;100651.09;4959180;28;20685;-75
2021/11/24 11:23:26;;;;;;;23.33;14.40;;;;;;;10.52;58.81;100645.06;4960405;28;20051;-77
2021/11/24 11:25:58;;;;;;;24.17;13.45;;;;;;;10.56;58.76;100650.16;4956731;28;20046;-74
2021/11/24 11:28:28;;;;;;;23.10;13.73;;;;;;;10.58;58.58;100642.97;4969880;28;20058;-82
2021/11/24 11:30:57;;;;;;;28.55;17.85;;;;;;;10.60;58.56;100646.34;4961457;28;20047;-76